createdAt,value
2018-12-17T00:00:37.584Z,1007.19
2018-12-17T00:01:37.581Z,1007.18
2018-12-17T00:02:37.536Z,1007.17
2018-12-17T00:03:37.520Z,1007.18
2018-12-17T00:04:37.510Z,1007.12
2018-12-17T00:05:41.798Z,1007.13
2018-12-17T00:06:37.487Z,1007.15
2018-12-17T00:07:37.695Z,1007.18
2018-12-17T00:08:37.469Z,1007.17
2018-12-17T00:09:37.487Z,1007.18
2018-12-17T00:10:37.446Z,1007.20
2018-12-17T00:11:37.470Z,1007.21
2018-12-17T00:12:37.429Z,1007.14
2018-12-17T00:13:37.414Z,1007.19
2018-12-17T00:14:37.431Z,1007.22
2018-12-17T00:15:37.422Z,1007.18
2018-12-17T00:16:37.381Z,1007.21
2018-12-17T00:17:37.367Z,1007.23
2018-12-17T00:18:37.358Z,1007.23
2018-12-17T00:19:37.346Z,1007.22
2018-12-17T00:20:37.336Z,1007.23
2018-12-17T00:21:37.386Z,1007.20
2018-12-17T00:22:37.315Z,1007.21
2018-12-17T00:23:37.303Z,1007.24
2018-12-17T00:24:37.293Z,1007.22
2018-12-17T00:25:37.282Z,1007.20
2018-12-17T00:26:37.274Z,1007.21
2018-12-17T00:27:37.289Z,1007.15
2018-12-17T00:28:37.251Z,1007.17
2018-12-17T00:29:37.241Z,1007.19
2018-12-17T00:30:37.230Z,1007.20
2018-12-17T00:31:37.217Z,1007.18
2018-12-17T00:32:37.205Z,1007.20
2018-12-17T00:33:37.226Z,1007.20
2018-12-17T00:34:37.191Z,1007.20
2018-12-17T00:35:37.174Z,1007.27
2018-12-17T00:36:37.161Z,1007.23
2018-12-17T00:37:37.152Z,1007.27
2018-12-17T00:38:37.142Z,1007.28
2018-12-17T00:39:37.175Z,1007.33
2018-12-17T00:40:37.121Z,1007.32
2018-12-17T00:41:37.110Z,1007.29
2018-12-17T00:42:37.105Z,1007.33
2018-12-17T00:43:37.090Z,1007.33
2018-12-17T00:44:37.077Z,1007.33
2018-12-17T00:45:37.098Z,1007.32
2018-12-17T00:46:37.052Z,1007.32
2018-12-17T00:47:37.045Z,1007.26
2018-12-17T00:48:37.031Z,1007.30
2018-12-17T00:49:37.022Z,1007.29
2018-12-17T00:50:37.010Z,1007.27
2018-12-17T00:51:37.029Z,1007.26
2018-12-17T00:52:36.989Z,1007.24
2018-12-17T00:53:36.976Z,1007.26
2018-12-17T00:54:36.970Z,1007.29
2018-12-17T00:55:36.955Z,1007.31
2018-12-17T00:56:36.946Z,1007.26
2018-12-17T00:57:36.997Z,1007.22
2018-12-17T00:58:36.925Z,1007.26
2018-12-17T00:59:36.921Z,1007.18
2018-12-17T01:00:36.902Z,1007.14
2018-12-17T01:01:36.892Z,1007.15
2018-12-17T01:02:36.879Z,1007.18
2018-12-17T01:03:36.901Z,1007.10
2018-12-17T01:04:36.858Z,1007.18
2018-12-17T01:05:36.848Z,1007.18
2018-12-17T01:06:36.865Z,1007.13
2018-12-17T01:07:36.826Z,1007.10
2018-12-17T01:08:36.817Z,1007.16
2018-12-17T01:09:36.822Z,1007.16
2018-12-17T01:10:36.797Z,1007.15
2018-12-17T01:11:36.812Z,1007.13
2018-12-17T01:12:36.773Z,1007.17
2018-12-17T01:13:36.760Z,1007.20
2018-12-17T01:14:36.750Z,1007.22
2018-12-17T01:15:36.738Z,1007.20
2018-12-17T01:16:36.764Z,1007.23
2018-12-17T01:17:36.715Z,1007.23
2018-12-17T01:18:36.713Z,1007.27
2018-12-17T01:19:36.694Z,1007.25
2018-12-17T01:20:36.714Z,1007.31
2018-12-17T01:21:36.676Z,1007.26
2018-12-17T01:22:36.708Z,1007.26
2018-12-17T01:23:36.652Z,1007.26
2018-12-17T01:24:36.643Z,1007.21
2018-12-17T01:25:36.630Z,1007.20
2018-12-17T01:26:36.619Z,1007.24
2018-12-17T01:27:36.608Z,1007.23
2018-12-17T01:28:36.630Z,1007.26
2018-12-17T01:29:36.585Z,1007.26
2018-12-17T01:30:36.576Z,1007.29
2018-12-17T01:31:36.568Z,1007.27
2018-12-17T01:32:36.554Z,1007.24
2018-12-17T01:33:36.542Z,1007.29
2018-12-17T01:34:36.563Z,1007.28
2018-12-17T01:35:36.523Z,1007.32
2018-12-17T01:36:36.511Z,1007.30
2018-12-17T01:37:36.499Z,1007.29
2018-12-17T01:38:36.488Z,1007.33
2018-12-17T01:39:36.479Z,1007.26
2018-12-17T01:40:36.674Z,1007.28
2018-12-17T01:41:36.461Z,1007.28
2018-12-17T01:42:36.444Z,1007.32
2018-12-17T01:43:36.433Z,1007.32
2018-12-17T01:44:36.458Z,1007.33
2018-12-17T01:45:36.416Z,1007.36
2018-12-17T01:46:36.404Z,1007.31
2018-12-17T01:47:36.390Z,1007.35
2018-12-17T01:48:36.383Z,1007.33
2018-12-17T01:49:36.399Z,1007.32
2018-12-17T01:50:36.360Z,1007.36
2018-12-17T01:51:36.352Z,1007.41
2018-12-17T01:52:36.335Z,1007.43
2018-12-17T01:53:36.326Z,1007.45
2018-12-17T01:54:36.317Z,1007.48
2018-12-17T01:55:36.334Z,1007.45
2018-12-17T01:56:36.292Z,1007.43
2018-12-17T01:57:36.308Z,1007.46
2018-12-17T01:58:36.271Z,1007.46
2018-12-17T01:59:36.262Z,1007.48
2018-12-17T02:00:36.250Z,1007.47
2018-12-17T02:01:36.269Z,1007.42
2018-12-17T02:02:36.226Z,1007.44
2018-12-17T02:03:36.217Z,1007.47
2018-12-17T02:04:36.207Z,1007.45
2018-12-17T02:05:36.195Z,1007.43
2018-12-17T02:06:36.184Z,1007.51
2018-12-17T02:07:36.203Z,1007.46
2018-12-17T02:08:36.176Z,1007.48
2018-12-17T02:09:36.418Z,1007.52
2018-12-17T02:10:36.142Z,1007.48
2018-12-17T02:11:36.131Z,1007.44
2018-12-17T02:12:36.119Z,1007.40
2018-12-17T02:13:36.109Z,1007.43
2018-12-17T02:14:36.099Z,1007.45
2018-12-17T02:15:36.116Z,1007.48
2018-12-17T02:16:36.076Z,1007.45
2018-12-17T02:17:36.064Z,1007.51
2018-12-17T02:18:36.056Z,1007.48
2018-12-17T02:19:36.044Z,1007.44
2018-12-17T02:20:36.034Z,1007.46
2018-12-17T02:21:36.053Z,1007.49
2018-12-17T02:22:36.011Z,1007.44
2018-12-17T02:23:36.003Z,1007.47
2018-12-17T02:24:35.988Z,1007.51
2018-12-17T02:25:35.977Z,1007.45
2018-12-17T02:26:35.967Z,1007.46
2018-12-17T02:27:35.986Z,1007.47
2018-12-17T02:28:36.379Z,1007.49
2018-12-17T02:29:35.933Z,1007.50
2018-12-17T02:30:35.923Z,1007.52
2018-12-17T02:31:35.911Z,1007.55
2018-12-17T02:32:35.904Z,1007.57
2018-12-17T02:33:35.921Z,1007.54
2018-12-17T02:34:35.916Z,1007.52
2018-12-17T02:35:35.870Z,1007.52
2018-12-17T02:36:35.891Z,1007.63
2018-12-17T02:37:35.852Z,1007.76
2018-12-17T02:38:35.835Z,1007.69
2018-12-17T02:39:35.824Z,1007.77
2018-12-17T02:40:35.813Z,1007.71
2018-12-17T02:41:35.832Z,1007.71
2018-12-17T02:42:35.796Z,1007.74
2018-12-17T02:43:35.812Z,1007.81
2018-12-17T02:44:35.770Z,1007.75
2018-12-17T02:45:35.761Z,1007.85
2018-12-17T02:46:35.750Z,1007.80
2018-12-17T02:47:35.740Z,1007.74
2018-12-17T02:48:35.764Z,1007.71
2018-12-17T02:49:35.716Z,1007.79
2018-12-17T02:50:35.707Z,1007.81
2018-12-17T02:51:35.724Z,1007.88
2018-12-17T02:52:35.711Z,1007.86
2018-12-17T02:53:35.670Z,1007.89
2018-12-17T02:54:35.933Z,1007.92
2018-12-17T02:55:35.653Z,1007.86
2018-12-17T02:56:35.643Z,1007.96
2018-12-17T02:57:35.628Z,1007.96
2018-12-17T02:58:35.617Z,1007.94
2018-12-17T02:59:35.607Z,1007.93
2018-12-17T03:00:35.649Z,1007.89
2018-12-17T03:01:35.585Z,1007.88
2018-12-17T03:02:35.577Z,1007.85
2018-12-17T03:03:35.563Z,1007.86
2018-12-17T03:04:35.551Z,1007.87
2018-12-17T03:05:35.544Z,1007.83
2018-12-17T03:06:35.578Z,1007.83
2018-12-17T03:07:35.519Z,1007.80
2018-12-17T03:08:35.574Z,1007.83
2018-12-17T03:09:35.499Z,1007.83
2018-12-17T03:10:35.489Z,1007.85
2018-12-17T03:11:35.516Z,1007.94
2018-12-17T03:12:35.464Z,1007.96
2018-12-17T03:13:35.566Z,1007.92
2018-12-17T03:14:35.446Z,1007.96
2018-12-17T03:15:35.433Z,1007.92
2018-12-17T03:16:35.422Z,1007.93
2018-12-17T03:17:35.411Z,1007.91
2018-12-17T03:18:35.400Z,1007.91
2018-12-17T03:19:35.449Z,1007.95
2018-12-17T03:20:35.377Z,1007.96
2018-12-17T03:21:35.368Z,1007.92
2018-12-17T03:22:35.376Z,1007.93
2018-12-17T03:23:35.347Z,1007.94
2018-12-17T03:24:35.337Z,1007.92
2018-12-17T03:25:35.372Z,1007.95
2018-12-17T03:26:35.314Z,1007.92
2018-12-17T03:27:35.301Z,1007.91
2018-12-17T03:28:35.293Z,1007.95
2018-12-17T03:29:35.287Z,1007.87
2018-12-17T03:30:35.311Z,1007.88
2018-12-17T03:31:35.259Z,1007.90
2018-12-17T03:32:35.250Z,1007.88
2018-12-17T03:33:35.236Z,1007.91
2018-12-17T03:34:35.226Z,1007.84
2018-12-17T03:35:35.215Z,1007.88
2018-12-17T03:36:35.252Z,1007.91
2018-12-17T03:37:35.194Z,1007.89
2018-12-17T03:38:35.186Z,1007.88
2018-12-17T03:39:35.218Z,1007.87
2018-12-17T03:40:35.162Z,1007.91
2018-12-17T03:41:35.150Z,1007.89
2018-12-17T03:42:35.186Z,1007.92
2018-12-17T03:43:35.176Z,1007.93
2018-12-17T03:44:35.117Z,1007.88
2018-12-17T03:45:35.108Z,1007.89
2018-12-17T03:46:35.095Z,1007.92
2018-12-17T03:47:35.086Z,1007.88
2018-12-17T03:48:35.076Z,1007.92
2018-12-17T03:49:35.126Z,1007.93
2018-12-17T03:50:35.060Z,1007.92
2018-12-17T03:51:35.042Z,1007.94
2018-12-17T03:52:35.034Z,1007.99
2018-12-17T03:53:35.018Z,1007.92
2018-12-17T03:54:35.009Z,1007.91
2018-12-17T03:55:35.047Z,1007.96
2018-12-17T03:56:34.990Z,1007.96
2018-12-17T03:57:34.975Z,1007.95
2018-12-17T03:58:34.965Z,1007.97
2018-12-17T03:59:34.954Z,1007.95
2018-12-17T04:00:34.946Z,1007.91
2018-12-17T04:01:34.980Z,1007.91
2018-12-17T04:02:34.960Z,1007.88
2018-12-17T04:03:34.909Z,1007.89
2018-12-17T04:04:34.900Z,1007.88
2018-12-17T04:05:34.937Z,1007.91
2018-12-17T04:06:34.877Z,1007.95
2018-12-17T04:07:34.911Z,1007.94
2018-12-17T04:08:34.855Z,1007.96
2018-12-17T04:09:34.846Z,1007.94
2018-12-17T04:10:34.834Z,1007.95
2018-12-17T04:11:34.824Z,1007.96
2018-12-17T04:12:34.812Z,1007.96
2018-12-17T04:13:34.845Z,1007.98
2018-12-17T04:14:34.791Z,1008.01
2018-12-17T04:15:34.781Z,1008.03
2018-12-17T04:16:34.779Z,1008.00
2018-12-17T04:17:34.757Z,1008.00
2018-12-17T04:18:34.747Z,1008.04
2018-12-17T04:19:34.778Z,1008.06
2018-12-17T04:20:34.729Z,1008.04
2018-12-17T04:21:34.714Z,1008.06
2018-12-17T04:22:34.704Z,1008.07
2018-12-17T04:23:34.693Z,1008.09
2018-12-17T04:24:34.682Z,1008.07
2018-12-17T04:25:34.720Z,1008.08
2018-12-17T04:26:34.660Z,1008.07
2018-12-17T04:27:34.689Z,1008.05
2018-12-17T04:28:34.639Z,1008.06
2018-12-17T04:29:34.626Z,1008.06
2018-12-17T04:30:34.621Z,1008.01
2018-12-17T04:31:34.606Z,1008.01
2018-12-17T04:32:34.596Z,1008.03
2018-12-17T04:33:34.622Z,1008.02
2018-12-17T04:34:34.576Z,1008.02
2018-12-17T04:35:34.563Z,1008.04
2018-12-17T04:36:34.554Z,1008.07
2018-12-17T04:37:34.580Z,1008.06
2018-12-17T04:38:34.541Z,1008.03
2018-12-17T04:39:34.520Z,1008.08
2018-12-17T04:40:34.549Z,1008.06
2018-12-17T04:41:34.497Z,1008.11
2018-12-17T04:42:34.487Z,1008.11
2018-12-17T04:43:34.478Z,1008.09
2018-12-17T04:44:34.464Z,1008.06
2018-12-17T04:45:34.454Z,1008.03
2018-12-17T04:46:34.485Z,1008.05
2018-12-17T04:47:34.432Z,1008.08
2018-12-17T04:48:34.472Z,1008.08
2018-12-17T04:49:34.410Z,1008.07
2018-12-17T04:50:34.449Z,1008.06
2018-12-17T04:51:34.391Z,1008.07
2018-12-17T04:52:34.381Z,1008.05
2018-12-17T04:53:34.417Z,1008.08
2018-12-17T04:54:34.362Z,1008.05
2018-12-17T04:55:34.344Z,1008.08
2018-12-17T04:56:34.335Z,1008.06
2018-12-17T04:57:34.367Z,1008.05
2018-12-17T04:58:34.314Z,1008.06
2018-12-17T04:59:34.302Z,1008.08
2018-12-17T05:00:34.290Z,1008.09
2018-12-17T05:01:34.282Z,1008.08
2018-12-17T05:02:34.271Z,1008.13
2018-12-17T05:03:34.304Z,1008.16
2018-12-17T05:04:34.246Z,1008.19
2018-12-17T05:05:34.284Z,1008.20
2018-12-17T05:06:34.228Z,1008.22
2018-12-17T05:07:34.213Z,1008.24
2018-12-17T05:08:34.229Z,1008.23
2018-12-17T05:09:34.196Z,1008.25
2018-12-17T05:10:34.224Z,1008.25
2018-12-17T05:11:34.171Z,1008.24
2018-12-17T05:12:34.160Z,1008.31
2018-12-17T05:13:34.151Z,1008.28
2018-12-17T05:14:34.139Z,1008.28
2018-12-17T05:15:34.130Z,1008.33
2018-12-17T05:16:34.159Z,1008.32
2018-12-17T05:17:34.105Z,1008.30
2018-12-17T05:18:34.097Z,1008.32
2018-12-17T05:19:34.086Z,1008.37
2018-12-17T05:20:34.122Z,1008.37
2018-12-17T05:21:34.062Z,1008.42
2018-12-17T05:22:34.056Z,1008.41
2018-12-17T05:23:34.050Z,1008.45
2018-12-17T05:24:34.036Z,1008.44
2018-12-17T05:25:34.019Z,1008.44
2018-12-17T05:26:34.084Z,1008.50
2018-12-17T05:27:33.997Z,1008.54
2018-12-17T05:28:33.989Z,1008.50
2018-12-17T05:29:34.030Z,1008.54
2018-12-17T05:30:33.965Z,1008.57
2018-12-17T05:31:33.957Z,1008.61
2018-12-17T05:32:33.948Z,1008.63
2018-12-17T05:33:33.933Z,1008.64
2018-12-17T05:34:33.930Z,1008.64
2018-12-17T05:35:33.951Z,1008.66
2018-12-17T05:36:33.938Z,1008.65
2018-12-17T05:37:33.943Z,1008.68
2018-12-17T05:38:33.878Z,1008.66
2018-12-17T05:39:33.873Z,1008.62
2018-12-17T05:40:33.856Z,1008.62
2018-12-17T05:41:33.844Z,1008.64
2018-12-17T05:42:33.837Z,1008.64
2018-12-17T05:43:33.863Z,1008.63
2018-12-17T05:44:33.813Z,1008.62
2018-12-17T05:45:33.807Z,1008.63
2018-12-17T05:46:33.790Z,1008.65
2018-12-17T05:47:33.782Z,1008.66
2018-12-17T05:48:33.770Z,1008.73
2018-12-17T05:49:33.804Z,1008.67
2018-12-17T05:50:33.748Z,1008.70
2018-12-17T05:51:33.737Z,1008.73
2018-12-17T05:52:33.725Z,1008.79
2018-12-17T05:53:33.814Z,1008.75
2018-12-17T05:54:33.704Z,1008.73
2018-12-17T05:55:33.694Z,1008.81
2018-12-17T05:56:33.682Z,1008.83
2018-12-17T05:57:33.672Z,1008.80
2018-12-17T05:58:33.661Z,1008.84
2018-12-17T05:59:33.708Z,1008.88
2018-12-17T06:00:33.639Z,1008.81
2018-12-17T06:01:33.639Z,1008.81
2018-12-17T06:02:33.620Z,1008.82
2018-12-17T06:03:33.610Z,1008.79
2018-12-17T06:04:33.597Z,1008.83
2018-12-17T06:05:33.639Z,1008.85
2018-12-17T06:06:33.575Z,1008.80
2018-12-17T06:07:33.569Z,1008.85
2018-12-17T06:08:33.563Z,1008.79
2018-12-17T06:09:33.553Z,1008.79
2018-12-17T06:10:33.545Z,1008.83
2018-12-17T06:11:33.565Z,1008.82
2018-12-17T06:12:33.509Z,1008.78
2018-12-17T06:13:33.500Z,1008.82
2018-12-17T06:14:33.498Z,1008.80
2018-12-17T06:15:33.479Z,1008.80
2018-12-17T06:16:33.465Z,1008.83
2018-12-17T06:17:33.664Z,1008.88
2018-12-17T06:18:33.454Z,1008.88
2018-12-17T06:19:33.435Z,1008.85
2018-12-17T06:20:33.429Z,1008.91
2018-12-17T06:21:33.674Z,1008.89
2018-12-17T06:22:33.456Z,1008.91
2018-12-17T06:23:33.450Z,1008.94
2018-12-17T06:24:33.393Z,1008.95
2018-12-17T06:25:33.378Z,1008.99
2018-12-17T06:26:33.359Z,1008.95
2018-12-17T06:27:36.789Z,1008.95
2018-12-17T06:28:33.339Z,1008.97
2018-12-17T06:29:35.672Z,1008.98
2018-12-17T06:30:33.365Z,1009.05
2018-12-17T06:31:33.318Z,1009.05
2018-12-17T06:32:33.295Z,1009.02
2018-12-17T06:33:33.299Z,1009.06
2018-12-17T06:34:33.276Z,1009.03
2018-12-17T06:35:33.316Z,1009.04
2018-12-17T06:36:33.254Z,1009.05
2018-12-17T06:37:33.303Z,1009.09
2018-12-17T06:38:33.239Z,1009.07
2018-12-17T06:39:33.219Z,1009.11
2018-12-17T06:40:33.207Z,1009.08
2018-12-17T06:41:33.197Z,1009.10
2018-12-17T06:42:33.209Z,1009.10
2018-12-17T06:43:33.214Z,1009.13
2018-12-17T06:44:33.249Z,1009.15
2018-12-17T06:45:33.159Z,1009.20
2018-12-17T06:46:33.144Z,1009.16
2018-12-17T06:47:33.138Z,1009.17
2018-12-17T06:48:33.163Z,1009.15
2018-12-17T06:49:33.116Z,1009.17
2018-12-17T06:50:33.105Z,1009.22
2018-12-17T06:51:33.094Z,1009.22
2018-12-17T06:52:33.080Z,1009.19
2018-12-17T06:53:33.095Z,1009.22
2018-12-17T06:54:33.114Z,1009.22
2018-12-17T06:55:33.043Z,1009.29
2018-12-17T06:56:33.039Z,1009.29
2018-12-17T06:57:33.038Z,1009.28
2018-12-17T06:58:33.028Z,1009.34
2018-12-17T06:59:33.004Z,1009.38
2018-12-17T07:00:33.041Z,1009.35
2018-12-17T07:01:32.997Z,1009.31
2018-12-17T07:02:32.973Z,1009.39
2018-12-17T07:03:33.008Z,1009.38
2018-12-17T07:04:33.007Z,1009.43
2018-12-17T07:05:32.941Z,1009.44
2018-12-17T07:06:32.945Z,1009.44
2018-12-17T07:07:32.977Z,1009.50
2018-12-17T07:08:32.907Z,1009.52
2018-12-17T07:09:32.898Z,1009.50
2018-12-17T07:10:32.925Z,1009.47
2018-12-17T07:11:32.875Z,1009.51
2018-12-17T07:12:32.890Z,1009.55
2018-12-17T07:13:32.891Z,1009.57
2018-12-17T07:14:36.442Z,1009.57
2018-12-17T07:15:32.839Z,1009.60
2018-12-17T07:16:32.821Z,1009.62
2018-12-17T07:17:32.922Z,1009.64
2018-12-17T07:18:32.807Z,1009.65
2018-12-17T07:19:32.784Z,1009.69
2018-12-17T07:20:32.821Z,1009.68
2018-12-17T07:21:32.769Z,1009.74
2018-12-17T07:22:32.762Z,1009.66
2018-12-17T07:23:32.752Z,1009.72
2018-12-17T07:24:32.734Z,1009.71
2018-12-17T07:25:32.826Z,1009.77
2018-12-17T07:26:32.723Z,1009.82
2018-12-17T07:27:32.700Z,1009.77
2018-12-17T07:28:32.706Z,1009.74
2018-12-17T07:29:32.731Z,1009.72
2018-12-17T07:30:32.716Z,1009.71
2018-12-17T07:31:32.756Z,1009.77
2018-12-17T07:32:32.700Z,1009.79
2018-12-17T07:33:32.640Z,1009.82
2018-12-17T07:34:32.638Z,1009.80
2018-12-17T07:35:32.613Z,1009.82
2018-12-17T07:36:32.608Z,1009.86
2018-12-17T07:37:32.648Z,1009.87
2018-12-17T07:38:32.585Z,1009.83
2018-12-17T07:39:32.607Z,1009.89
2018-12-17T07:40:32.561Z,1009.86
2018-12-17T07:41:32.552Z,1009.98
2018-12-17T07:42:32.558Z,1009.97
2018-12-17T07:43:32.578Z,1010.00
2018-12-17T07:44:32.615Z,1010.00
2018-12-17T07:45:32.525Z,1010.09
2018-12-17T07:46:32.510Z,1010.11
2018-12-17T07:47:32.498Z,1010.12
2018-12-17T07:48:32.480Z,1010.13
2018-12-17T07:49:32.463Z,1010.16
2018-12-17T07:50:32.493Z,1010.13
2018-12-17T07:51:32.469Z,1010.15
2018-12-17T07:52:32.441Z,1010.20
2018-12-17T07:53:32.420Z,1010.16
2018-12-17T07:54:32.410Z,1010.21
2018-12-17T07:55:32.496Z,1010.25
2018-12-17T07:56:32.396Z,1010.28
2018-12-17T07:57:32.440Z,1010.26
2018-12-17T07:58:32.378Z,1010.28
2018-12-17T07:59:32.361Z,1010.31
2018-12-17T08:00:32.347Z,1010.27
2018-12-17T08:01:32.334Z,1010.36
2018-12-17T08:02:32.323Z,1010.32
2018-12-17T08:03:32.386Z,1010.33
2018-12-17T08:04:32.350Z,1010.32
2018-12-17T08:05:32.404Z,1010.36
2018-12-17T08:06:32.306Z,1010.40
2018-12-17T08:07:32.295Z,1010.41
2018-12-17T08:08:35.449Z,1010.45
2018-12-17T08:09:32.263Z,1010.44
2018-12-17T08:10:32.235Z,1010.43
2018-12-17T08:11:32.279Z,1010.42
2018-12-17T08:12:32.224Z,1010.47
2018-12-17T08:13:32.214Z,1010.45
2018-12-17T08:14:32.244Z,1010.51
2018-12-17T08:15:32.184Z,1010.48
2018-12-17T08:16:32.175Z,1010.52
2018-12-17T08:17:32.163Z,1010.57
2018-12-17T08:18:32.259Z,1010.54
2018-12-17T08:19:32.142Z,1010.58
2018-12-17T08:20:32.178Z,1010.55
2018-12-17T08:21:32.174Z,1010.58
2018-12-17T08:22:32.107Z,1010.61
2018-12-17T08:23:32.104Z,1010.59
2018-12-17T08:24:32.369Z,1010.63
2018-12-17T08:25:32.075Z,1010.65
2018-12-17T08:26:32.064Z,1010.66
2018-12-17T08:27:32.066Z,1010.65
2018-12-17T08:28:32.044Z,1010.69
2018-12-17T08:29:32.043Z,1010.77
2018-12-17T08:30:32.147Z,1010.68
2018-12-17T08:31:32.011Z,1010.74
2018-12-17T08:32:32.006Z,1010.76
2018-12-17T08:33:32.013Z,1010.81
2018-12-17T08:34:32.007Z,1010.83
2018-12-17T08:35:31.990Z,1010.84
2018-12-17T08:36:32.005Z,1010.83
2018-12-17T08:37:31.987Z,1010.86
2018-12-17T08:38:31.951Z,1010.87
2018-12-17T08:39:31.934Z,1010.90
2018-12-17T08:40:31.961Z,1010.90
2018-12-17T08:41:31.966Z,1010.91
2018-12-17T08:42:32.004Z,1010.91
2018-12-17T08:43:32.009Z,1010.95
2018-12-17T08:44:31.881Z,1010.94
2018-12-17T08:45:31.901Z,1010.95
2018-12-17T08:46:31.903Z,1011.00
2018-12-17T08:47:31.838Z,1011.00
2018-12-17T08:48:31.829Z,1011.03
2018-12-17T08:49:31.899Z,1011.06
2018-12-17T08:50:31.834Z,1011.07
2018-12-17T08:51:31.801Z,1011.01
2018-12-17T08:52:31.842Z,1011.02
2018-12-17T08:53:31.795Z,1011.04
2018-12-17T08:54:31.829Z,1011.04
2018-12-17T08:55:31.810Z,1011.04
2018-12-17T08:56:31.748Z,1011.07
2018-12-17T08:57:37.812Z,1011.05
2018-12-17T08:58:32.731Z,1011.10
2018-12-17T08:59:31.709Z,1011.10
2018-12-17T09:00:31.805Z,1011.12
2018-12-17T09:01:31.696Z,1011.12
2018-12-17T09:02:31.710Z,1011.15
2018-12-17T09:03:31.734Z,1011.16
2018-12-17T09:04:31.662Z,1011.14
2018-12-17T09:05:31.786Z,1011.13
2018-12-17T09:06:31.888Z,1011.19
2018-12-17T09:07:32.079Z,1011.23
2018-12-17T09:08:31.640Z,1011.22
2018-12-17T09:09:31.606Z,1011.17
2018-12-17T09:10:31.596Z,1011.22
2018-12-17T09:11:31.623Z,1011.20
2018-12-17T09:12:31.861Z,1011.18
2018-12-17T09:13:31.561Z,1011.23
2018-12-17T09:14:31.558Z,1011.26
2018-12-17T09:15:31.591Z,1011.24
2018-12-17T09:16:31.538Z,1011.27
2018-12-17T09:17:31.589Z,1011.25
2018-12-17T09:18:31.532Z,1011.30
2018-12-17T09:19:31.524Z,1011.38
2018-12-17T09:20:32.131Z,1011.37
2018-12-17T09:21:31.569Z,1011.33
2018-12-17T09:22:31.501Z,1011.37
2018-12-17T09:23:31.528Z,1011.32
2018-12-17T09:24:31.441Z,1011.32
2018-12-17T09:25:31.464Z,1011.33
2018-12-17T09:26:31.425Z,1011.33
2018-12-17T09:27:31.452Z,1011.40
2018-12-17T09:28:31.405Z,1011.39
2018-12-17T09:29:31.460Z,1011.41
2018-12-17T09:30:31.397Z,1011.35
2018-12-17T09:31:31.367Z,1011.38
2018-12-17T09:32:31.374Z,1011.42
2018-12-17T09:33:31.374Z,1011.42
2018-12-17T09:34:31.420Z,1011.49
2018-12-17T09:35:31.393Z,1011.51
2018-12-17T09:36:31.428Z,1011.52
2018-12-17T09:37:31.326Z,1011.51
2018-12-17T09:38:31.328Z,1011.49
2018-12-17T09:39:31.286Z,1011.53
2018-12-17T09:40:31.408Z,1011.53
2018-12-17T09:41:31.577Z,1011.58
2018-12-17T09:42:31.252Z,1011.62
2018-12-17T09:43:31.236Z,1011.64
2018-12-17T09:44:31.247Z,1011.66
2018-12-17T09:45:31.211Z,1011.62
2018-12-17T09:46:31.220Z,1011.68
2018-12-17T09:47:31.313Z,1011.68
2018-12-17T09:48:31.182Z,1011.64
2018-12-17T09:49:31.320Z,1011.64
2018-12-17T09:50:31.196Z,1011.65
2018-12-17T09:51:31.184Z,1011.61
2018-12-17T09:52:31.295Z,1011.66
2018-12-17T09:53:31.135Z,1011.58
2018-12-17T09:54:31.210Z,1011.66
2018-12-17T09:55:31.119Z,1011.69
2018-12-17T09:56:31.153Z,1011.64
2018-12-17T09:57:31.084Z,1011.66
2018-12-17T09:58:31.182Z,1011.64
2018-12-17T09:59:31.084Z,1011.67
2018-12-17T10:00:31.221Z,1011.69
2018-12-17T10:01:31.065Z,1011.73
2018-12-17T10:02:31.048Z,1011.72
2018-12-17T10:03:31.112Z,1011.70
2018-12-17T10:04:31.044Z,1011.71
2018-12-17T10:05:31.008Z,1011.71
2018-12-17T10:06:31.073Z,1011.72
2018-12-17T10:07:31.048Z,1011.74
2018-12-17T10:08:31.016Z,1011.82
2018-12-17T10:09:31.031Z,1011.77
2018-12-17T10:10:30.979Z,1011.77
2018-12-17T10:11:30.950Z,1011.80
2018-12-17T10:12:30.944Z,1011.75
2018-12-17T10:13:30.908Z,1011.77
2018-12-17T10:14:30.961Z,1011.69
2018-12-17T10:15:30.940Z,1011.70
2018-12-17T10:16:30.891Z,1011.65
2018-12-17T10:17:30.978Z,1011.64
2018-12-17T10:18:36.667Z,1011.62
2018-12-17T10:19:32.146Z,1011.61
2018-12-17T10:20:30.836Z,1011.56
2018-12-17T10:21:30.962Z,1011.53
2018-12-17T10:22:30.851Z,1011.57
2018-12-17T10:23:30.910Z,1011.57
2018-12-17T10:24:30.790Z,1011.63
2018-12-17T10:25:30.894Z,1011.62
2018-12-17T10:26:30.842Z,1011.64
2018-12-17T10:27:30.755Z,1011.64
2018-12-17T10:28:30.801Z,1011.64
2018-12-17T10:29:30.739Z,1011.60
2018-12-17T10:30:32.707Z,1011.61
2018-12-17T10:31:31.189Z,1011.61
2018-12-17T10:32:30.788Z,1011.62
2018-12-17T10:33:30.705Z,1011.63
2018-12-17T10:34:30.679Z,1011.62
2018-12-17T10:35:30.737Z,1011.63
2018-12-17T10:36:30.680Z,1011.67
2018-12-17T10:37:30.795Z,1011.62
2018-12-17T10:38:30.705Z,1011.68
2018-12-17T10:39:30.652Z,1011.68
2018-12-17T10:40:30.628Z,1011.69
2018-12-17T10:41:30.657Z,1011.66
2018-12-17T10:42:30.697Z,1011.68
2018-12-17T10:43:30.631Z,1011.67
2018-12-17T10:44:30.578Z,1011.70
2018-12-17T10:45:30.601Z,1011.67
2018-12-17T10:46:30.660Z,1011.68
2018-12-17T10:47:30.547Z,1011.73
2018-12-17T10:48:30.599Z,1011.78
2018-12-17T10:49:30.535Z,1011.81
2018-12-17T10:50:30.587Z,1011.80
2018-12-17T10:51:30.513Z,1011.76
2018-12-17T10:52:30.494Z,1011.75
2018-12-17T10:53:30.479Z,1011.73
2018-12-17T10:54:30.470Z,1011.75
2018-12-17T10:55:30.463Z,1011.75
2018-12-17T10:56:30.508Z,1011.70
2018-12-17T10:57:30.507Z,1011.72
2018-12-17T10:58:30.433Z,1011.72
2018-12-17T10:59:30.452Z,1011.69
2018-12-17T11:00:30.464Z,1011.65
2018-12-17T11:01:32.462Z,1011.64
2018-12-17T11:02:30.415Z,1011.67
2018-12-17T11:03:30.389Z,1011.72
2018-12-17T11:04:30.365Z,1011.70
2018-12-17T11:05:30.534Z,1011.74
2018-12-17T11:06:30.789Z,1011.78
2018-12-17T11:07:30.643Z,1011.71
2018-12-17T11:08:31.713Z,1011.67
2018-12-17T11:09:32.103Z,1011.69
2018-12-17T11:10:30.576Z,1011.66
2018-12-17T11:11:30.426Z,1011.64
2018-12-17T11:12:31.594Z,1011.74
2018-12-17T11:13:30.258Z,1011.70
2018-12-17T11:14:30.245Z,1011.73
2018-12-17T11:15:30.263Z,1011.74
2018-12-17T11:16:30.229Z,1011.72
2018-12-17T11:17:30.215Z,1011.69
2018-12-17T11:18:30.359Z,1011.70
2018-12-17T11:19:30.353Z,1011.69
2018-12-17T11:20:30.303Z,1011.70
2018-12-17T11:21:30.168Z,1011.64
2018-12-17T11:22:30.180Z,1011.61
2018-12-17T11:23:30.434Z,1011.69
2018-12-17T11:24:30.149Z,1011.68
2018-12-17T11:25:30.117Z,1011.72
2018-12-17T11:26:30.110Z,1011.67
2018-12-17T11:27:30.159Z,1011.71
2018-12-17T11:28:30.088Z,1011.64
2018-12-17T11:29:30.212Z,1011.69
2018-12-17T11:30:30.075Z,1011.70
2018-12-17T11:31:30.133Z,1011.74
2018-12-17T11:32:30.071Z,1011.73
2018-12-17T11:33:30.030Z,1011.73
2018-12-17T11:34:30.050Z,1011.74
2018-12-17T11:35:30.056Z,1011.73
2018-12-17T11:36:30.018Z,1011.74
2018-12-17T11:37:30.045Z,1011.73
2018-12-17T11:38:29.992Z,1011.73
2018-12-17T11:39:29.999Z,1011.75
2018-12-17T11:40:30.143Z,1011.73
2018-12-17T11:41:30.056Z,1011.72
2018-12-17T11:42:29.973Z,1011.77
2018-12-17T11:43:29.972Z,1011.75
2018-12-17T11:44:29.957Z,1011.68
2018-12-17T11:45:29.974Z,1011.66
2018-12-17T11:46:29.973Z,1011.66
2018-12-17T11:47:29.879Z,1011.65
2018-12-17T11:48:29.939Z,1011.67
2018-12-17T11:49:29.961Z,1011.71
2018-12-17T11:50:29.922Z,1011.69
2018-12-17T11:51:29.898Z,1011.69
2018-12-17T11:52:29.849Z,1011.68
2018-12-17T11:53:29.855Z,1011.68
2018-12-17T11:54:29.795Z,1011.66
2018-12-17T11:55:29.935Z,1011.71
2018-12-17T11:56:29.777Z,1011.73
2018-12-17T11:57:29.798Z,1011.76
2018-12-17T11:58:29.793Z,1011.74
2018-12-17T11:59:29.745Z,1011.75
2018-12-17T12:00:29.740Z,1011.78
2018-12-17T12:01:29.745Z,1011.82
2018-12-17T12:02:29.906Z,1011.79
2018-12-17T12:03:29.744Z,1011.85
2018-12-17T12:04:29.679Z,1011.81
2018-12-17T12:05:29.741Z,1011.86